This is the latest recevied weather packets stored in our database for station/object K5YNC. If no packets are shown the sender has not sent any weather packets the latest 10 day(s).
| Time | Temp. | Humidity | Pressure | Rain* | Wind** | Luminosity | Snow |
|---|---|---|---|---|---|---|---|
| 1777479290 | 15° C | 77% | 1019.6 hPa | 0 mm | - | 246 W/m² | - |
| 1777478986 | 15° C | 77% | 1019.5 hPa | 0 mm | - | 224 W/m² | - |
| 1777478683 | 15° C | 78% | 1019.7 hPa | 0 mm | - | 199 W/m² | - |
| 1777478379 | 15° C | 77% | 1019.7 hPa | 0 mm | - | 217 W/m² | - |
| 1777478076 | 15° C | 78% | 1019.8 hPa | 0 mm | - | 224 W/m² | - |
| 1777477772 | 15° C | 78% | 1019.7 hPa | 0 mm | - | 206 W/m² | - |
| 1777477468 | 14.44° C | 79% | 1019.7 hPa | 0 mm | - | 192 W/m² | - |
| 1777477165 | 14.44° C | 78% | 1019.7 hPa | 0 mm | - | 172 W/m² | - |
| 1777476861 | 14.44° C | 78% | 1020 hPa | 0 mm | - | 157 W/m² | - |
| 1777476560 | 14.44° C | 78% | 1019.7 hPa | 0 mm | - | 205 W/m² | - |
| 1777476255 | 14.44° C | 78% | 1019.8 hPa | 0 mm | - | 200 W/m² | - |
| 1777475951 | 14.44° C | 78% | 1020 hPa | 0 mm | - | 171 W/m² | - |
| 1777475648 | 14.44° C | 78% | 1019.7 hPa | 0 mm | - | 187 W/m² | - |
| 1777475344 | 14.44° C | 78% | 1019.7 hPa | 0 mm | - | 178 W/m² | - |
| 1777475039 | 14.44° C | 79% | 1019.6 hPa | 0 mm | - | 177 W/m² | - |
| 1777474736 | 13.89° C | 79% | 1019.8 hPa | 0 mm | - | 172 W/m² | - |
| 1777474432 | 14.44° C | 78% | 1019.7 hPa | 0 mm | - | 180 W/m² | - |
| 1777474128 | 13.89° C | 79% | 1019.7 hPa | 0 mm | - | 172 W/m² | - |
| 1777473827 | 13.89° C | 79% | 1019.8 hPa | 0 mm | - | 126 W/m² | - |
| 1777473523 | 13.89° C | 79% | 1019.8 hPa | 0 mm | - | 90 W/m² | - |
| 1777473219 | 13.89° C | 78% | 1019.7 hPa | 0 mm | - | 83 W/m² | - |
| 1777472915 | 13.89° C | 78% | 1019.8 hPa | 0 mm | - | 86 W/m² | - |
| 1777472612 | 13.89° C | 78% | 1019.5 hPa | 0 mm | - | 93 W/m² | - |
| 1777472309 | 13.89° C | 78% | 1019.4 hPa | 0 mm | - | 138 W/m² | - |
| 1777472006 | 13.89° C | 78% | 1019.4 hPa | 0 mm | - | 161 W/m² | - |
* Rain latest hour (hover to see other rain measurements)
** Current wind speed in m/s (hover to see current wind gust speed)